Time;durP1;ratioP1;P1;durP2;ratioP2;P2;SDS_P1;SDS_P2;PMS_P1;PMS_P2;Temp;Humidity;BMP_temperature;BMP_pressure;BME280_temperature;BME280_humidity;BME280_pressure;Samples;Min_cycle;Max_cycle;Signal;HPM_P1;HPM_P2
2023/12/01 00:01:42;;;;;;;;;;;1.00;99.90;;;0.13;100.00;96219.25;5017945;28;1767;-73
2023/12/01 00:04:09;;;;;;;;;;;1.10;99.90;;;0.08;100.00;96227.91;5020310;28;1497;-71
2023/12/01 00:06:37;;;;;;;;;;;1.10;99.90;;;0.12;100.00;96224.41;5024384;28;1244;-70
2023/12/01 00:09:04;;;;;;;;;;;1.10;99.90;;;0.20;100.00;96219.94;5007167;28;1431;-71
2023/12/01 00:11:31;;;;;;;;;;;1.10;99.90;;;0.30;100.00;96221.41;5019975;28;1479;-70
2023/12/01 00:13:58;;;;;;;;;;;1.20;99.90;;;0.12;100.00;96232.06;5005174;28;1903;-71
2023/12/01 00:16:25;;;;;;;;;;;1.10;99.90;;;0.18;100.00;96226.78;5018717;28;1379;-71
2023/12/01 00:18:52;;;;;;;;;;;1.10;99.90;;;0.14;100.00;96220.94;5022827;28;1467;-71
2023/12/01 00:21:18;;;;;;;;;;;1.10;99.90;;;0.04;100.00;96216.91;5008353;28;1366;-70
2023/12/01 00:23:45;;;;;;;;;;;1.10;99.90;;;-0.01;100.00;96211.91;5022120;28;1717;-71
2023/12/01 00:26:12;;;;;;;;;;;1.00;99.90;;;-0.02;100.00;96220.44;5022682;28;1466;-71
2023/12/01 00:28:39;;;;;;;;;;;1.00;99.90;;;0.07;100.00;96223.66;5023128;28;1354;-70
2023/12/01 00:31:05;;;;;;;;;;;1.00;99.90;;;0.05;100.00;96223.69;5021516;28;1690;-71
2023/12/01 00:33:32;;;;;;;;;;;1.00;99.90;;;0.14;100.00;96217.56;5023178;28;1899;-71
2023/12/01 00:36:00;;;;;;;;;;;1.00;99.90;;;0.25;100.00;96209.63;5021586;28;1422;-71
2023/12/01 00:38:27;;;;;;;;;;;1.10;99.90;;;0.22;100.00;96218.19;5021316;28;1636;-71
2023/12/01 00:40:54;;;;;;;;;;;1.10;99.90;;;0.10;100.00;96219.31;5021850;28;1501;-70
2023/12/01 00:43:20;;;;;;;;;;;1.10;99.90;;;0.27;100.00;96223.19;5007756;28;1581;-71
2023/12/01 00:45:47;;;;;;;;;;;1.10;99.90;;;0.28;100.00;96212.97;5021588;28;1516;-71
2023/12/01 00:48:14;;;;;;;;;;;1.10;99.90;;;0.30;100.00;96221.41;5020716;28;1417;-74
2023/12/01 00:50:41;;;;;;;;;;;1.20;99.90;;;0.06;100.00;96214.34;5020085;28;1551;-71
2023/12/01 00:53:08;;;;;;;;;;;1.10;99.90;;;0.12;100.00;96222.69;5021212;28;1894;-71
2023/12/01 00:55:36;;;;;;;;;;;1.10;99.90;;;0.16;100.00;96231.94;5005513;28;1748;-71
2023/12/01 00:58:06;;;;;;;;;;;1.10;99.90;;;0.11;100.00;96236.31;5022385;28;1465;-70
2023/12/01 01:00:32;;;;;;;;;;;1.10;99.90;;;0.22;100.00;96242.88;5021364;28;1421;-72
2023/12/01 01:02:59;;;;;;;;;;;1.10;99.90;;;0.35;100.00;96240.00;5004329;28;1485;-70
2023/12/01 01:05:26;;;;;;;;;;;1.20;99.90;;;0.32;100.00;96232.44;5022367;28;1389;-71
2023/12/01 01:07:53;;;;;;;;;;;1.20;99.90;;;0.18;100.00;96222.56;5020679;28;1472;-71
2023/12/01 01:10:20;;;;;;;;;;;1.20;99.90;;;0.29;100.00;96206.97;5009015;28;1433;-70
2023/12/01 01:12:47;;;;;;;;;;;1.20;99.90;;;0.31;100.00;96215.44;5022827;28;2005;-71
2023/12/01 01:15:14;;;;;;;;;;;1.10;99.90;;;0.31;100.00;96217.16;5024758;28;1398;-71
2023/12/01 01:17:41;;;;;;;;;;;1.20;99.90;;;0.25;100.00;96230.91;5006764;28;1499;-71
2023/12/01 01:20:10;;;;;;;;;;;1.20;99.90;;;0.27;100.00;96235.94;5022048;28;1491;-72
2023/12/01 01:22:37;;;;;;;;;;;1.20;99.90;;;0.28;100.00;96232.53;5005813;28;1411;-71
2023/12/01 01:25:05;;;;;;;;;;;1.20;99.90;;;0.35;100.00;96247.66;5021489;28;1975;-72
2023/12/01 01:27:31;;;;;;;;;;;1.20;99.90;;;0.42;100.00;96258.56;5006821;28;1545;-70
2023/12/01 01:29:58;;;;;;;;;;;1.30;99.90;;;0.45;100.00;96266.16;5020551;28;1545;-73
2023/12/01 01:32:25;;;;;;;;;;;1.30;99.90;;;0.61;100.00;96275.09;5002852;28;1906;-72
2023/12/01 01:34:52;;;;;;;;;;;1.40;99.90;;;0.46;100.00;96275.50;5015256;28;1575;-74
2023/12/01 01:37:19;;;;;;;;;;;1.40;99.90;;;0.31;100.00;96275.84;5020833;28;1583;-70
2023/12/01 01:39:45;;;;;;;;;;;1.30;99.90;;;0.37;100.00;96286.75;5018171;28;1478;-71
2023/12/01 01:42:12;;;;;;;;;;;1.30;99.90;;;0.28;100.00;96283.59;5019096;28;1473;-70
2023/12/01 01:44:39;;;;;;;;;;;1.30;99.90;;;0.34;100.00;96285.97;5017222;28;1456;-71
2023/12/01 01:47:06;;;;;;;;;;;1.30;99.90;;;0.42;100.00;96296.84;5022471;28;1500;-71
2023/12/01 01:49:33;;;;;;;;;;;1.30;99.90;;;0.60;100.00;96293.03;5024594;28;1449;-71
2023/12/01 01:52:01;;;;;;;;;;;1.40;99.90;;;0.45;100.00;96280.63;5006708;28;1605;-72
2023/12/01 01:54:28;;;;;;;;;;;1.40;99.90;;;0.49;100.00;96270.31;5025191;28;2017;-71
2023/12/01 01:56:57;;;;;;;;;;;1.40;99.90;;;0.40;100.00;96255.22;5004794;28;1714;-71
2023/12/01 01:59:24;;;;;;;;;;;1.40;99.90;;;0.36;100.00;96253.59;5006914;28;1887;-71
2023/12/01 02:01:51;;;;;;;;;;;1.30;99.90;;;0.28;100.00;96256.34;5021677;28;1684;-71
2023/12/01 02:04:18;;;;;;;;;;;1.30;99.90;;;0.33;100.00;96256.22;5025798;28;1441;-71
2023/12/01 02:06:47;;;;;;;;;;;1.30;99.90;;;0.46;100.00;96270.38;5005997;28;1500;-72
2023/12/01 02:09:15;;;;;;;;;;;1.40;99.90;;;0.59;100.00;96260.72;5022375;28;1758;-76
2023/12/01 02:11:42;;;;;;;;;;;1.40;99.90;;;0.59;100.00;96282.00;5003276;28;1526;-72
2023/12/01 02:14:09;;;;;;;;;;;1.50;99.90;;;0.59;100.00;96281.13;5024065;28;1978;-72
2023/12/01 02:16:45;;;;;;;;;;;1.50;99.90;;;0.59;100.00;96279.44;5025580;28;1430;-71
2023/12/01 02:19:13;;;;;;;;;;;1.50;99.90;;;0.47;100.00;96269.50;5024194;28;1545;-72
2023/12/01 02:21:45;;;;;;;;;;;1.50;99.90;;;0.47;100.00;96271.22;5006066;28;1984;-70
2023/12/01 02:24:13;;;;;;;;;;;1.50;99.90;;;0.60;100.00;96287.94;5024535;28;1083;-71
2023/12/01 02:26:40;;;;;;;;;;;1.50;99.90;;;0.55;100.00;96277.84;5021781;28;1524;-70
2023/12/01 02:29:07;;;;;;;;;;;1.50;99.90;;;0.52;100.00;96282.16;5026114;28;1331;-71
2023/12/01 02:31:35;;;;;;;;;;;1.40;99.90;;;0.56;100.00;96279.50;5023020;28;1437;-72
2023/12/01 02:34:03;;;;;;;;;;;1.50;99.90;;;0.44;100.00;96279.78;5025466;28;1902;-71
2023/12/01 02:36:30;;;;;;;;;;;1.40;99.90;;;0.53;100.00;96281.31;5027630;28;1488;-71
2023/12/01 02:38:58;;;;;;;;;;;1.40;99.90;;;0.49;100.00;96298.38;5023087;28;1446;-71
2023/12/01 02:41:24;;;;;;;;;;;1.50;99.90;;;0.32;100.00;96301.34;5025953;28;1401;-72
2023/12/01 02:43:53;;;;;;;;;;;1.50;99.90;;;0.41;100.00;96287.50;5023703;28;1550;-70
2023/12/01 02:46:22;;;;;;;;;;;1.40;99.90;;;0.35;100.00;96277.47;5027796;28;1524;-71
2023/12/01 02:48:50;;;;;;;;;;;1.50;99.90;;;0.26;100.00;96286.16;5025632;28;1415;-72
2023/12/01 02:51:18;;;;;;;;;;;1.40;99.90;;;0.25;100.00;96284.50;5023869;28;1399;-71
2023/12/01 02:53:45;;;;;;;;;;;1.40;99.90;;;0.30;100.00;96277.56;5020166;28;2007;-72
2023/12/01 02:56:12;;;;;;;;;;;1.40;99.90;;;0.30;100.00;96266.53;5026082;28;1910;-73
2023/12/01 02:58:38;;;;;;;;;;;1.30;99.90;;;0.30;100.00;96264.81;5017948;28;1324;-70
2023/12/01 03:01:05;;;;;;;;;;;1.30;99.90;;;0.33;100.00;96262.16;5008760;28;1590;-71
2023/12/01 03:03:32;;;;;;;;;;;1.30;99.90;;;0.36;100.00;96268.91;5023040;28;1332;-70
2023/12/01 03:05:59;;;;;;;;;;;1.20;99.90;;;0.39;100.00;96266.31;5022542;28;1342;-71
2023/12/01 03:08:26;;;;;;;;;;;1.30;99.90;;;0.36;100.00;96277.41;5022573;28;1234;-71
2023/12/01 03:10:54;;;;;;;;;;;1.30;99.90;;;0.40;100.00;96273.09;5006749;28;1502;-72
2023/12/01 03:13:22;;;;;;;;;;;1.40;99.90;;;0.49;100.00;96269.47;4993229;28;1910;-71
2023/12/01 03:15:49;;;;;;;;;;;1.30;99.90;;;0.41;100.00;96277.28;5024619;28;1346;-71
2023/12/01 03:18:19;;;;;;;;;;;1.30;99.90;;;0.46;100.00;96272.09;5021177;28;1419;-71
2023/12/01 03:20:49;;;;;;;;;;;1.40;99.90;;;0.49;100.00;96266.91;5009243;28;1409;-72
2023/12/01 03:23:16;;;;;;;;;;;1.30;99.90;;;0.30;100.00;96269.06;5026017;28;1350;-73
2023/12/01 03:25:43;;;;;;;;;;;1.30;99.90;;;0.37;100.00;96278.28;5023568;28;1445;-71
2023/12/01 03:28:10;;;;;;;;;;;1.40;99.90;;;0.43;100.00;96269.63;5026218;28;1500;-70
2023/12/01 03:30:37;;;;;;;;;;;1.40;99.90;;;0.36;100.00;96262.09;5024906;28;1378;-70
2023/12/01 03:33:04;;;;;;;;;;;1.40;99.90;;;0.40;100.00;96265.41;5024886;28;1993;-71
2023/12/01 03:35:31;;;;;;;;;;;1.40;99.90;;;0.58;100.00;96266.69;5009954;28;1417;-71
2023/12/01 03:37:58;;;;;;;;;;;1.40;99.90;;;0.39;100.00;96261.22;5006044;28;1796;-71
2023/12/01 03:40:26;;;;;;;;;;;1.50;99.90;;;0.41;100.00;96259.44;5024328;28;1417;-71
2023/12/01 03:42:53;;;;;;;;;;;1.40;99.90;;;0.45;100.00;96267.88;5025041;28;1407;-70
2023/12/01 03:45:22;;;;;;;;;;;1.40;99.90;;;0.75;100.00;96286.72;5022667;28;1470;-73
2023/12/01 03:47:50;;;;;;;;;;;1.50;99.90;;;0.75;100.00;96287.56;5003280;28;1589;-71
2023/12/01 03:50:21;;;;;;;;;;;1.50;99.90;;;0.70;100.00;96288.53;5007826;28;1537;-73
2023/12/01 03:52:49;;;;;;;;;;;1.60;99.90;;;0.62;100.00;96281.06;5022583;28;1500;-71
2023/12/01 03:55:16;;;;;;;;;;;1.60;99.90;;;0.60;100.00;96281.09;5007677;28;1313;-71
2023/12/01 03:57:44;;;;;;;;;;;1.60;99.90;;;0.49;100.00;96262.66;5018821;28;1252;-71
2023/12/01 04:00:13;;;;;;;;;;;1.60;99.90;;;0.58;100.00;96259.88;5025779;28;1066;-71
2023/12/01 04:02:42;;;;;;;;;;;1.50;99.90;;;0.57;100.00;96262.44;5008232;28;1343;-72
2023/12/01 04:05:17;;;;;;;;;;;1.50;99.90;;;0.54;100.00;96263.38;5022418;28;1107;-70
2023/12/01 04:07:50;;;;;;;;;;;1.50;99.90;;;0.45;100.00;96255.09;5020982;28;1449;-71
2023/12/01 04:10:18;;;;;;;;;;;1.50;99.90;;;0.49;100.00;96249.06;5023231;28;1411;-71
2023/12/01 04:12:45;;;;;;;;;;;1.50;99.90;;;0.54;100.00;96259.97;5020265;28;1498;-71
2023/12/01 04:15:17;;;;;;;;;;;1.50;99.90;;;0.56;100.00;96258.25;5007828;28;1910;-72
2023/12/01 04:17:46;;;;;;;;;;;1.50;99.90;;;0.49;100.00;96255.00;5020641;28;1078;-70
2023/12/01 04:20:21;;;;;;;;;;;1.50;99.90;;;0.52;100.00;96252.34;5008037;28;1293;-72
2023/12/01 04:22:53;;;;;;;;;;;1.50;99.90;;;0.44;100.00;96241.50;5008406;28;1458;-71
2023/12/01 04:25:20;;;;;;;;;;;1.50;99.90;;;0.49;100.00;96244.78;5021148;28;1494;-71
2023/12/01 04:27:47;;;;;;;;;;;1.50;99.90;;;0.62;100.00;96243.59;5003479;28;1370;-70
2023/12/01 04:30:15;;;;;;;;;;;1.50;99.90;;;0.38;100.00;96247.56;5023310;28;1209;-71
2023/12/01 04:32:47;;;;;;;;;;;1.50;99.90;;;0.47;100.00;96243.13;5025030;28;1390;-72
2023/12/01 04:35:15;;;;;;;;;;;1.40;99.90;;;0.51;100.00;96249.84;5022898;28;1985;-72
2023/12/01 04:37:42;;;;;;;;;;;1.40;99.90;;;0.57;100.00;96257.34;5022362;28;1237;-71
2023/12/01 04:40:14;;;;;;;;;;;1.50;99.90;;;0.60;100.00;96264.94;5021557;28;1221;-70
2023/12/01 04:42:44;;;;;;;;;;;1.50;99.90;;;0.56;100.00;96256.50;5003151;28;1407;-72
2023/12/01 04:45:13;;;;;;;;;;;1.50;99.90;;;0.54;100.00;96250.59;5026820;28;1377;-70
2023/12/01 04:47:41;;;;;;;;;;;1.50;99.90;;;0.56;100.00;96248.03;5012426;28;1119;-71
2023/12/01 04:50:14;;;;;;;;;;;1.50;99.90;;;0.62;100.00;96258.09;5022055;28;1396;-72
2023/12/01 04:52:57;;;;;;;;;;;1.50;99.90;;;0.47;100.00;96256.75;5004162;28;1511;-70
2023/12/01 04:55:28;;;;;;;;;;;1.50;99.90;;;0.60;100.00;96258.13;5022049;28;1974;-71
2023/12/01 04:57:56;;;;;;;;;;;1.50;99.90;;;0.57;100.00;96265.88;5005195;28;1453;-71
2023/12/01 05:00:25;;;;;;;;;;;1.50;99.90;;;0.60;100.00;96270.88;5008030;28;1375;-71
2023/12/01 05:02:56;;;;;;;;;;;1.50;99.90;;;0.60;100.00;96276.00;5021007;28;1454;-71
2023/12/01 05:05:24;;;;;;;;;;;1.50;99.90;;;0.57;100.00;96268.41;5025856;28;1289;-70
2023/12/01 05:07:57;;;;;;;;;;;1.50;99.90;;;0.57;100.00;96273.53;5024642;28;1295;-70
2023/12/01 05:10:29;;;;;;;;;;;1.60;99.90;;;0.58;100.00;96285.41;5011055;28;1479;-74
2023/12/01 05:12:59;;;;;;;;;;;1.60;99.90;;;0.72;100.00;96297.84;5021272;28;1430;-70
2023/12/01 05:15:29;;;;;;;;;;;1.50;99.90;;;0.65;100.00;96291.22;5025527;28;1906;-71
2023/12/01 05:18:07;;;;;;;;;;;1.60;99.90;;;0.61;100.00;96295.53;5023581;28;1197;-70
2023/12/01 05:20:34;;;;;;;;;;;1.50;99.90;;;0.61;100.00;96299.81;5023350;28;1193;-70
2023/12/01 05:23:05;;;;;;;;;;;1.60;99.90;;;0.65;100.00;96292.94;5012322;28;1385;-71
2023/12/01 05:25:33;;;;;;;;;;;1.60;99.90;;;0.74;100.00;96300.38;5025910;28;1149;-71
2023/12/01 05:28:02;;;;;;;;;;;1.60;99.90;;;0.65;100.00;96296.31;5026978;28;1348;-70
2023/12/01 05:30:31;;;;;;;;;;;1.60;99.90;;;0.54;100.00;96301.66;5027684;28;1256;-71
2023/12/01 05:33:00;;;;;;;;;;;1.50;99.90;;;0.47;100.00;96296.75;5010904;28;1713;-70
2023/12/01 05:35:28;;;;;;;;;;;1.50;99.90;;;0.51;100.00;96301.75;5026148;28;1930;-71
2023/12/01 05:37:56;;;;;;;;;;;1.50;99.90;;;0.57;100.00;96301.63;5025326;28;1209;-71
2023/12/01 05:40:38;;;;;;;;;;;1.50;99.90;;;0.61;100.00;96300.66;5027843;28;1374;-71
2023/12/01 05:43:06;;;;;;;;;;;1.50;99.90;;;0.63;100.00;96316.78;5026354;28;1576;-70
2023/12/01 05:45:37;;;;;;;;;;;1.60;99.90;;;0.61;100.00;96323.63;5012419;28;1417;-70
2023/12/01 05:48:08;;;;;;;;;;;1.50;99.90;;;0.70;100.00;96335.34;5011549;28;1083;-71
2023/12/01 05:50:37;;;;;;;;;;;1.60;99.90;;;0.71;100.00;96329.38;5023786;28;1410;-71
2023/12/01 05:53:08;;;;;;;;;;;1.60;99.90;;;0.52;100.00;96338.31;5022214;28;1359;-74
2023/12/01 05:55:38;;;;;;;;;;;1.50;99.90;;;0.50;100.00;96342.63;5028338;28;1985;-70
2023/12/01 05:58:10;;;;;;;;;;;1.50;99.90;;;0.51;100.00;96342.59;5009286;28;1540;-70
2023/12/01 06:00:37;;;;;;;;;;;1.50;99.90;;;0.45;100.00;96344.44;5025224;28;1344;-70
2023/12/01 06:03:06;;;;;;;;;;;1.50;99.90;;;0.61;100.00;96340.66;5021803;28;1415;-71
2023/12/01 06:05:34;;;;;;;;;;;1.50;99.90;;;0.51;100.00;96327.28;4994733;28;1594;-72
2023/12/01 06:08:02;;;;;;;;;;;1.50;99.90;;;0.54;100.00;96334.88;5003534;28;1371;-71
2023/12/01 06:10:31;;;;;;;;;;;1.50;99.90;;;0.59;100.00;96334.75;5025415;28;1418;-71
2023/12/01 06:12:59;;;;;;;;;;;1.50;99.90;;;0.50;100.00;96343.50;5024975;28;1704;-72
2023/12/01 06:15:29;;;;;;;;;;;1.50;99.90;;;0.47;100.00;96337.59;5008002;28;2065;-70
2023/12/01 06:17:58;;;;;;;;;;;1.50;99.90;;;0.38;100.00;96341.19;5022305;28;1115;-71
2023/12/01 06:20:25;;;;;;;;;;;1.40;99.90;;;0.39;100.00;96340.34;5010617;28;1663;-70
2023/12/01 06:23:01;;;;;;;;;;;1.40;99.90;;;0.27;100.00;96336.31;5025795;28;1590;-71
2023/12/01 06:25:30;;;;;;;;;;;1.40;99.90;;;0.36;100.00;96346.31;5026745;28;1492;-71
2023/12/01 06:28:02;;;;;;;;;;;1.40;99.90;;;0.43;100.00;96346.19;5006730;28;1458;-71
2023/12/01 06:30:33;;;;;;;;;;;1.40;99.90;;;0.47;100.00;96358.03;5026547;28;1178;-71
2023/12/01 06:33:06;;;;;;;;;;;1.40;99.90;;;0.32;100.00;96360.03;5011926;28;1360;-71
2023/12/01 06:35:33;;;;;;;;;;;1.40;99.90;;;0.37;100.00;96371.00;5028977;28;1941;-71
2023/12/01 06:38:00;;;;;;;;;;;1.40;99.90;;;0.31;100.00;96377.94;5025545;28;1268;-71
2023/12/01 06:40:27;;;;;;;;;;;1.30;99.90;;;0.32;100.00;96364.28;5026154;28;1126;-70
2023/12/01 06:42:54;;;;;;;;;;;1.30;99.90;;;0.31;100.00;96363.47;5025325;28;1280;-71
2023/12/01 06:45:26;;;;;;;;;;;1.30;99.90;;;0.45;100.00;96381.03;5012384;28;1595;-72
2023/12/01 06:47:59;;;;;;;;;;;1.30;99.90;;;0.31;100.00;96375.38;5026350;28;1280;-71
2023/12/01 06:50:28;;;;;;;;;;;1.30;99.90;;;0.25;100.00;96383.16;5026836;28;1371;-70
2023/12/01 06:52:59;;;;;;;;;;;1.30;99.90;;;0.18;100.00;96373.09;5006346;28;2025;-72
2023/12/01 06:55:27;;;;;;;;;;;1.30;99.90;;;0.11;100.00;96378.34;5025924;28;1988;-70
2023/12/01 06:57:54;;;;;;;;;;;1.20;99.90;;;0.17;100.00;96396.09;5024062;28;1133;-71
2023/12/01 07:02:56;;;;;;;;;;;1.20;99.90;;;0.28;100.00;96391.59;5024402;28;1371;-71
2023/12/01 07:05:27;;;;;;;;;;;1.20;99.90;;;0.17;100.00;96383.34;5026571;28;1326;-75
2023/12/01 07:07:55;;;;;;;;;;;1.20;99.90;;;0.13;100.00;96385.09;5006774;28;1271;-71
2023/12/01 07:10:22;;;;;;;;;;;1.10;99.90;;;0.07;100.00;96387.78;5022355;28;1470;-71
2023/12/01 07:12:50;;;;;;;;;;;1.10;99.90;;;0.16;100.00;96379.09;5022456;28;1296;-71
2023/12/01 07:15:20;;;;;;;;;;;1.20;99.90;;;0.07;100.00;96381.81;5025860;28;1983;-73
2023/12/01 07:17:51;;;;;;;;;;;1.20;99.90;;;-0.04;100.00;96382.91;5002354;28;1107;-70
2023/12/01 07:20:18;;;;;;;;;;;1.10;99.90;;;0.06;100.00;96385.25;5023525;28;1417;-71
2023/12/01 07:22:47;;;;;;;;;;;1.10;99.90;;;0.01;100.00;96375.16;5022301;28;1389;-70
2023/12/01 07:25:21;;;;;;;;;;;1.10;99.90;;;0.04;100.00;96366.59;5025975;28;1382;-71
2023/12/01 07:27:54;;;;;;;;;;;1.10;99.90;;;0.07;100.00;96366.53;5022015;28;1459;-72
2023/12/01 07:30:22;;;;;;;;;;;1.00;99.90;;;0.06;100.00;96370.78;5023721;28;1390;-71
2023/12/01 07:32:49;;;;;;;;;;;1.10;99.90;;;0.02;100.00;96368.34;5005409;28;1292;-71
2023/12/01 07:35:16;;;;;;;;;;;1.00;99.90;;;0.12;100.00;96382.59;5004216;28;1907;-73
2023/12/01 07:37:44;;;;;;;;;;;1.10;99.90;;;0.13;100.00;96391.91;5024503;28;1193;-71
2023/12/01 07:40:21;;;;;;;;;;;1.10;99.90;;;0.13;100.00;96404.69;5022988;28;1616;-70
2023/12/01 07:42:51;;;;;;;;;;;1.10;99.90;;;0.06;100.00;96406.50;5022496;28;1450;-70
2023/12/01 07:45:19;;;;;;;;;;;1.20;99.90;;;0.07;100.00;96404.78;5024904;28;1735;-71
2023/12/01 07:47:48;;;;;;;;;;;1.10;99.90;;;0.17;100.00;96401.19;5022010;28;1214;-71
2023/12/01 07:50:16;;;;;;;;;;;1.10;99.90;;;0.07;100.00;96384.38;5006944;28;4649;-71
2023/12/01 07:52:47;;;;;;;;;;;1.10;99.90;;;0.01;100.00;96400.66;5000944;28;1272;-70
2023/12/01 07:55:15;;;;;;;;;;;1.10;99.90;;;0.09;100.00;96406.47;5002695;28;1968;-71
2023/12/01 07:57:42;;;;;;;;;;;1.10;99.90;;;0.06;100.00;96396.31;4986183;28;1310;-71
2023/12/01 08:00:19;;;;;;;;;;;1.10;99.90;;;0.05;100.00;96411.66;5004675;28;1317;-71
2023/12/01 08:02:48;;;;;;;;;;;1.10;99.90;;;0.06;100.00;96410.78;5003534;28;1360;-71
2023/12/01 08:05:15;;;;;;;;;;;1.10;99.90;;;0.18;100.00;96407.97;5001841;28;1331;-71
2023/12/01 08:08:03;;;;;;;;;;;1.10;99.90;;;-0.04;100.00;96412.69;5004388;28;1437;-70
2023/12/01 08:10:30;;;;;;;;;;;1.00;99.90;;;-0.05;100.00;96405.88;5003034;28;1521;-70
2023/12/01 08:12:58;;;;;;;;;;;1.00;99.90;;;0.04;100.00;96410.78;5001978;28;1352;-70
2023/12/01 08:15:26;;;;;;;;;;;1.00;99.90;;;0.00;100.00;96396.44;5001899;28;1906;-70
2023/12/01 08:17:56;;;;;;;;;;;1.00;99.90;;;-0.01;100.00;96403.22;4999451;28;1552;-71
2023/12/01 08:20:24;;;;;;;;;;;1.00;99.90;;;0.09;100.00;96401.38;4992101;28;1003;-70
2023/12/01 08:22:54;;;;;;;;;;;1.00;99.90;;;0.07;100.00;96408.22;5003987;28;1391;-70
2023/12/01 08:25:22;;;;;;;;;;;1.10;99.90;;;0.02;100.00;96415.09;5003955;28;1334;-72
2023/12/01 08:27:51;;;;;;;;;;;1.00;99.90;;;0.03;100.00;96405.75;5002432;28;1479;-71
2023/12/01 08:30:19;;;;;;;;;;;1.10;99.90;;;0.12;100.00;96398.75;4991647;28;1355;-70
2023/12/01 08:32:48;;;;;;;;;;;1.10;99.90;;;0.13;100.00;96399.56;5004601;28;1758;-73
2023/12/01 08:35:15;;;;;;;;;;;1.10;99.90;;;0.14;100.00;96391.91;5003067;28;1989;-70
2023/12/01 08:37:43;;;;;;;;;;;1.10;99.90;;;0.18;100.00;96407.97;5000126;28;1057;-72
2023/12/01 08:40:11;;;;;;;;;;;1.10;99.90;;;0.25;100.00;96414.66;5007873;28;1319;-70
2023/12/01 08:42:41;;;;;;;;;;;1.10;99.90;;;0.07;100.00;96432.84;5000322;28;1380;-70
2023/12/01 08:45:09;;;;;;;;;;;1.10;99.90;;;0.04;100.00;96432.91;4999616;28;1441;-71
2023/12/01 08:47:36;;;;;;;;;;;1.10;99.90;;;-0.06;100.00;96445.84;4987007;28;1397;-71
2023/12/01 08:50:04;;;;;;;;;;;1.00;99.90;;;0.04;100.00;96443.13;5003876;28;1183;-70
2023/12/01 08:52:36;;;;;;;;;;;1.00;99.90;;;0.04;100.00;96440.56;5001075;28;1304;-71
2023/12/01 08:55:03;;;;;;;;;;;1.00;99.90;;;0.05;100.00;96427.81;5000498;28;1964;-70
2023/12/01 08:57:33;;;;;;;;;;;1.00;99.90;;;-0.12;100.00;96427.28;5005278;28;1015;-70
2023/12/01 08:59:59;;;;;;;;;;;0.90;99.90;;;0.05;100.00;96426.97;4985203;28;1319;-70
2023/12/01 09:02:26;;;;;;;;;;;1.00;99.90;;;0.02;100.00;96425.28;4989728;28;1710;-70
2023/12/01 09:04:54;;;;;;;;;;;1.00;99.90;;;-0.04;100.00;96423.72;4984593;28;1428;-72
2023/12/01 09:07:21;;;;;;;;;;;1.10;99.90;;;-0.04;100.00;96420.31;5003752;28;1207;-72
2023/12/01 09:09:54;;;;;;;;;;;1.00;99.90;;;-0.08;100.00;96411.88;4985169;28;1344;-70
2023/12/01 09:12:22;;;;;;;;;;;1.00;99.90;;;0.01;100.00;96408.31;5000753;28;1289;-71
2023/12/01 09:14:49;;;;;;;;;;;1.00;99.90;;;-0.04;100.00;96405.03;5002343;28;1902;-71
2023/12/01 09:17:16;;;;;;;;;;;0.90;99.90;;;-0.02;100.00;96403.28;5002387;28;1329;-70
2023/12/01 09:19:43;;;;;;;;;;;0.90;99.90;;;-0.13;100.00;96425.59;5004757;28;1408;-72
2023/12/01 09:22:10;;;;;;;;;;;0.90;99.90;;;-0.18;100.00;96418.03;5002050;28;1372;-70
2023/12/01 09:24:37;;;;;;;;;;;0.90;99.90;;;-0.18;100.00;96423.16;5003522;28;1043;-71
2023/12/01 09:27:04;;;;;;;;;;;0.90;99.90;;;-0.15;100.00;96424.78;5002652;28;1369;-70
2023/12/01 09:29:31;;;;;;;;;;;0.90;99.90;;;-0.22;100.00;96427.44;5002498;28;1029;-71
2023/12/01 09:31:58;;;;;;;;;;;0.80;99.90;;;-0.12;100.00;96428.09;5000855;28;1444;-71
2023/12/01 09:34:25;;;;;;;;;;;0.80;99.90;;;-0.19;100.00;96433.38;5003505;28;1926;-70
2023/12/01 09:36:52;;;;;;;;;;;0.90;99.90;;;-0.12;100.00;96428.09;5000353;28;1373;-70
2023/12/01 09:39:19;;;;;;;;;;;0.90;99.90;;;-0.17;100.00;96429.91;5001909;28;1034;-71
2023/12/01 09:41:46;;;;;;;;;;;0.90;99.90;;;-0.17;100.00;96432.47;5002718;28;1284;-73
2023/12/01 09:44:13;;;;;;;;;;;0.90;99.90;;;-0.15;100.00;96443.47;4986753;28;1412;-72
2023/12/01 09:46:42;;;;;;;;;;;0.80;99.90;;;-0.13;100.00;96446.84;5001691;28;1476;-70
2023/12/01 09:49:10;;;;;;;;;;;0.80;99.90;;;0.01;100.00;96456.78;4985810;28;1420;-70
2023/12/01 09:51:37;;;;;;;;;;;0.90;99.90;;;-0.15;100.00;96452.84;5002289;28;1415;-71
2023/12/01 09:54:04;;;;;;;;;;;0.90;99.90;;;-0.17;100.00;96454.59;5002499;28;1320;-71
2023/12/01 09:56:31;;;;;;;;;;;0.90;99.90;;;-0.07;100.00;96451.84;5000141;28;1906;-71
2023/12/01 09:58:59;;;;;;;;;;;0.90;99.90;;;-0.01;100.00;96450.88;5002535;28;1520;-71
2023/12/01 10:01:27;;;;;;;;;;;0.90;99.90;;;-0.04;100.00;96443.28;5000583;28;1316;-70
2023/12/01 10:03:56;;;;;;;;;;;0.90;99.90;;;-0.15;100.00;96446.03;4987599;28;1046;-70
2023/12/01 10:06:24;;;;;;;;;;;1.00;99.90;;;-0.07;100.00;96444.19;4998498;28;1323;-71
2023/12/01 10:08:51;;;;;;;;;;;1.00;99.90;;;-0.05;100.00;96444.97;5006525;28;1384;-70
2023/12/01 10:11:27;;;;;;;;;;;0.90;99.90;;;-0.08;100.00;96445.03;5008776;28;1463;-71
2023/12/01 10:13:54;;;;;;;;;;;0.90;99.90;;;0.02;100.00;96442.31;5004421;28;1427;-71
2023/12/01 10:16:21;;;;;;;;;;;0.90;99.90;;;-0.01;100.00;96436.41;4975221;28;1981;-70
2023/12/01 10:19:04;;;;;;;;;;;0.90;99.90;;;0.04;100.00;96432.91;5004107;28;1444;-71
2023/12/01 10:21:45;;;;;;;;;;;1.00;99.90;;;-0.06;100.00;96419.50;5004680;28;1721;-70
2023/12/01 10:24:13;;;;;;;;;;;1.00;99.90;;;0.06;100.00;96423.53;5003034;28;1708;-70
2023/12/01 10:26:44;;;;;;;;;;;1.00;99.90;;;-0.10;100.00;96428.09;5004962;28;1238;-72
2023/12/01 10:29:24;;;;;;;;;;;1.00;99.90;;;0.05;100.00;96419.31;5008814;28;1749;-71
2023/12/01 10:31:52;;;;;;;;;;;0.90;99.90;;;-0.04;100.00;96433.09;5005591;28;1489;-71
2023/12/01 10:34:19;;;;;;;;;;;1.00;99.90;;;0.04;100.00;96438.84;4988525;28;1405;-73
2023/12/01 10:36:47;;;;;;;;;;;0.90;99.90;;;0.02;100.00;96434.66;4985543;28;1991;-72
2023/12/01 10:39:16;;;;;;;;;;;1.00;99.90;;;-0.11;100.00;96417.06;5003372;28;1468;-71
2023/12/01 10:41:46;;;;;;;;;;;1.00;99.90;;;-0.09;100.00;96414.44;4986812;28;1428;-74
2023/12/01 10:44:18;;;;;;;;;;;1.00;99.90;;;-0.05;100.00;96409.25;5003512;28;1412;-72
2023/12/01 10:46:46;;;;;;;;;;;0.90;99.90;;;0.00;100.00;96416.84;5005606;28;1409;-70
2023/12/01 10:49:15;;;;;;;;;;;0.90;99.90;;;-0.03;100.00;96422.81;5003988;28;1400;-71
2023/12/01 10:51:42;;;;;;;;;;;0.90;99.90;;;-0.06;100.00;96424.63;5002189;28;1555;-70
2023/12/01 10:54:14;;;;;;;;;;;1.00;99.90;;;-0.04;100.00;96427.97;4989732;28;1689;-70
2023/12/01 10:56:56;;;;;;;;;;;0.90;99.90;;;0.02;100.00;96420.19;5004000;28;1914;-71
2023/12/01 10:59:26;;;;;;;;;;;0.90;99.90;;;-0.07;100.00;96407.63;4986032;28;1568;-75
2023/12/01 11:01:54;;;;;;;;;;;1.00;99.90;;;-0.01;100.00;96404.94;4997036;28;1385;-72
2023/12/01 11:04:26;;;;;;;;;;;1.00;99.90;;;0.06;100.00;96421.81;4987385;28;1614;-71
2023/12/01 11:07:13;;;;;;;;;;;1.00;99.90;;;-0.14;100.00;96417.09;4991575;28;1179;-71
2023/12/01 11:10:15;;;;;;;;;;;1.00;99.90;;;-0.10;100.00;96412.78;5003992;28;1459;-70
2023/12/01 11:13:09;;;;;;;;;;;1.00;99.90;;;-0.21;100.00;96400.22;4974053;28;1448;-71
2023/12/01 11:15:39;;;;;;;;;;;0.90;99.90;;;-0.20;100.00;96390.88;5005160;28;1904;-70
2023/12/01 11:18:10;;;;;;;;;;;0.90;99.90;;;-0.22;100.00;96385.81;5001928;28;1420;-70
2023/12/01 11:20:44;;;;;;;;;;;0.90;99.90;;;-0.25;100.00;96389.25;5001547;28;1546;-73
2023/12/01 11:23:12;;;;;;;;;;;0.70;99.90;;;-0.23;100.00;96395.19;5042588;23;3592;-86
2023/12/01 11:25:48;;;;;;;;;;;0.80;99.90;;;-0.15;100.00;96394.19;5008239;28;2550;-87
2023/12/01 11:28:57;;;;;;;;;;;0.80;99.90;;;-0.20;100.00;96388.34;5008212;28;2478;-87
2023/12/01 11:31:22;;;;;;;;;;;0.70;99.90;;;-0.26;100.00;96391.84;5007845;28;2461;-86
2023/12/01 11:33:50;;;;;;;;;;;0.80;99.90;;;-0.17;100.00;96390.81;4991813;28;2395;-85
2023/12/01 11:36:27;;;;;;;;;;;0.80;99.90;;;-0.20;100.00;96394.28;5014434;28;2326;-86
2023/12/01 11:39:09;;;;;;;;;;;0.80;99.90;;;-0.23;100.00;96396.88;5009442;28;2504;-86
2023/12/01 11:41:46;;;;;;;;;;;0.70;99.90;;;-0.27;100.00;96405.47;5011377;28;2412;-86
2023/12/01 11:44:24;;;;;;;;;;;0.70;99.90;;;-0.27;100.00;96411.41;5011727;28;2300;-87